Time;durP1;ratioP1;P1;durP2;ratioP2;P2;SDS_P1;SDS_P2;PMS_P1;PMS_P2;Temp;Humidity;BMP_temperature;BMP_pressure;BME280_temperature;BME280_humidity;BME280_pressure;Samples;Min_cycle;Max_cycle;Signal;HPM_P1;HPM_P2
2023/06/01 00:00:14;;;;;;;7.37;2.90;;;;;;;14.67;45.95;100405.48;1782968;80;21103;-64
2023/06/01 00:02:43;;;;;;;5.55;2.60;;;;;;;14.65;45.96;100402.95;1754769;80;21032;-63
2023/06/01 00:05:12;;;;;;;7.28;2.77;;;;;;;14.65;46.09;100402.95;1782944;80;21479;-64
2023/06/01 00:07:42;;;;;;;11.85;3.27;;;;;;;14.62;46.16;100402.02;1783004;80;21028;-62
2023/06/01 00:10:11;;;;;;;5.60;2.47;;;;;;;14.59;46.26;100403.84;1783314;80;21013;-63
2023/06/01 00:12:40;;;;;;;5.28;2.42;;;;;;;14.55;46.34;100406.20;1783074;80;21055;-61
2023/06/01 00:15:09;;;;;;;6.00;3.20;;;;;;;14.49;46.53;100399.36;1782940;80;21047;-63
2023/06/01 00:17:38;;;;;;;4.92;2.58;;;;;;;14.48;46.66;100407.33;1782963;80;21011;-62
2023/06/01 00:20:08;;;;;;;6.50;2.80;;;;;;;14.45;46.76;100405.02;1783012;80;21449;-64
2023/06/01 00:22:39;;;;;;;7.65;3.08;;;;;;;14.42;46.92;100409.06;1752514;80;21171;-63
2023/06/01 00:25:10;;;;;;;7.03;3.30;;;;;;;14.40;46.94;100406.18;1783090;80;21035;-65
2023/06/01 00:27:39;;;;;;;3.83;2.62;;;;;;;14.38;46.98;100408.31;1753236;80;21507;-63
2023/06/01 00:30:10;;;;;;;7.42;2.90;;;;;;;14.38;46.92;100411.07;1783105;80;21087;-63
2023/06/01 00:32:39;;;;;;;7.10;3.20;;;;;;;14.39;46.88;100410.85;1782963;80;21463;-63
2023/06/01 00:35:09;;;;;;;7.80;3.30;;;;;;;14.34;47.03;100406.53;1783057;80;21429;-64
2023/06/01 00:37:38;;;;;;;10.00;3.40;;;;;;;14.23;47.22;100409.44;1783312;80;21032;-63
2023/06/01 00:40:07;;;;;;;7.20;3.20;;;;;;;14.19;47.36;100408.19;1783220;80;21063;-65
2023/06/01 00:42:37;;;;;;;5.55;2.77;;;;;;;14.15;47.42;100405.56;1753354;80;21457;-63
2023/06/01 00:45:06;;;;;;;9.23;3.40;;;;;;;14.14;47.67;100400.28;1783075;80;21067;-63
2023/06/01 00:47:40;;;;;;;6.87;3.12;;;;;;;14.13;47.81;100398.05;1763797;80;21113;-63
2023/06/01 00:50:13;;;;;;;6.72;3.00;;;;;;;14.17;47.82;100397.08;1739061;81;21101;-63
2023/06/01 00:52:42;;;;;;;6.50;3.20;;;;;;;14.22;47.75;100398.63;1739159;82;21030;-64
2023/06/01 00:55:10;;;;;;;8.88;3.12;;;;;;;14.22;47.76;100400.02;1739435;82;21046;-63
2023/06/01 00:57:42;;;;;;;5.78;2.75;;;;;;;14.18;47.91;100397.39;1739223;81;21560;-63
2023/06/01 01:00:11;;;;;;;7.83;2.90;;;;;;;14.14;47.96;100398.36;1720613;82;21038;-62
2023/06/01 01:02:44;;;;;;;8.58;3.20;;;;;;;14.12;47.98;100401.03;1739250;81;21010;-63
2023/06/01 01:05:14;;;;;;;6.60;3.30;;;;;;;14.09;48.08;100404.23;1739534;82;20987;-62
2023/06/01 01:07:56;;;;;;;4.62;2.80;;;;;;;14.07;48.19;100400.31;1739206;81;21517;-62
2023/06/01 01:10:42;;;;;;;7.08;3.20;;;;;;;14.06;48.24;100408.27;1720514;82;21619;-60
2023/06/01 01:13:15;;;;;;;8.58;3.02;;;;;;;14.04;48.29;100410.40;1739158;82;21018;-64
2023/06/01 01:16:09;;;;;;;6.60;2.72;;;;;;;14.01;48.42;100404.48;1739216;81;21121;-61
2023/06/01 01:18:46;;;;;;;5.90;2.90;;;;;;;13.98;48.46;100408.52;1739395;82;21018;-62
2023/06/01 01:21:28;;;;;;;10.68;3.67;;;;;;;13.93;48.57;100406.96;1739226;81;21022;-66
2023/06/01 01:24:31;;;;;;;8.13;3.15;;;;;;;13.92;48.61;100413.53;1739216;82;21049;-63
2023/06/01 01:27:39;;;;;;;5.97;3.35;;;;;;;13.89;48.67;100409.31;1737837;82;21007;-62
2023/06/01 01:30:08;;;;;;;4.78;2.80;;;;;;;13.87;48.72;100414.19;1739508;82;21153;-62
2023/06/01 01:32:38;;;;;;;6.53;3.00;;;;;;;13.85;48.78;100408.59;1739280;81;21054;-62
2023/06/01 01:35:10;;;;;;;8.65;3.55;;;;;;;13.85;48.81;100412.72;1739359;81;21002;-63
2023/06/01 01:37:53;;;;;;;5.30;3.00;;;;;;;13.86;48.83;100415.79;1739357;82;21058;-63
2023/06/01 01:40:25;;;;;;;8.60;3.40;;;;;;;13.86;48.88;100413.87;1739400;81;21042;-64
2023/06/01 01:42:55;;;;;;;9.25;3.80;;;;;;;13.84;48.85;100414.62;1739116;82;21073;-62
2023/06/01 01:45:26;;;;;;;7.62;3.10;;;;;;;13.82;48.82;100416.76;1739208;81;21482;-62
2023/06/01 01:48:15;;;;;;;6.12;3.00;;;;;;;13.80;48.79;100413.37;1752660;81;21523;-63
2023/06/01 01:50:56;;;;;;;11.18;3.62;;;;;;;13.76;48.83;100415.41;1770033;80;21028;-63
2023/06/01 01:53:27;;;;;;;9.35;3.37;;;;;;;13.71;48.75;100411.94;1768950;80;21061;-63
2023/06/01 01:55:56;;;;;;;9.13;2.92;;;;;;;13.68;49.04;100415.66;1770041;81;21060;-62
2023/06/01 01:58:26;;;;;;;7.97;3.17;;;;;;;13.70;48.98;100412.16;1769875;80;21052;-62
2023/06/01 02:00:57;;;;;;;8.33;2.90;;;;;;;13.69;48.91;100418.72;1770118;81;21033;-62
2023/06/01 02:03:26;;;;;;;6.90;3.37;;;;;;;13.68;48.94;100414.28;1769996;81;21012;-64
2023/06/01 02:05:55;;;;;;;7.55;3.25;;;;;;;13.69;48.95;100418.72;1769846;80;21004;-62
2023/06/01 02:08:25;;;;;;;10.58;4.00;;;;;;;13.64;48.98;100414.68;1769987;80;21032;-63
2023/06/01 02:10:55;;;;;;;12.73;4.00;;;;;;;13.63;49.00;100414.37;1770022;81;21029;-62
2023/06/01 02:13:24;;;;;;;8.48;3.80;;;;;;;13.63;48.94;100421.25;1770280;80;20989;-62
2023/06/01 02:15:53;;;;;;;7.85;3.62;;;;;;;13.60;48.96;100416.17;1769852;81;21506;-61
2023/06/01 02:18:22;;;;;;;12.15;4.17;;;;;;;13.60;49.06;100416.17;1770085;80;21452;-63
2023/06/01 02:20:51;;;;;;;9.05;4.12;;;;;;;13.58;49.22;100414.70;1769786;81;21041;-63
2023/06/01 02:23:21;;;;;;;11.10;3.85;;;;;;;13.57;49.34;100413.02;1769998;81;21052;-63
2023/06/01 02:25:51;;;;;;;11.25;4.03;;;;;;;13.58;49.43;100419.68;1769878;81;21052;-62
2023/06/01 02:28:20;;;;;;;10.23;4.30;;;;;;;13.59;49.51;100421.37;1770020;81;21024;-63
2023/06/01 02:30:49;;;;;;;9.40;4.10;;;;;;;13.60;49.62;100418.93;1769877;80;20997;-63
2023/06/01 02:33:19;;;;;;;9.43;3.90;;;;;;;13.58;49.70;100425.19;1740341;81;21033;-62
2023/06/01 02:35:47;;;;;;;9.75;3.92;;;;;;;13.57;49.74;100421.27;1770292;81;21072;-62
2023/06/01 02:38:18;;;;;;;9.85;4.28;;;;;;;13.55;49.82;100417.36;1769949;81;21056;-62
2023/06/01 02:40:48;;;;;;;9.10;3.50;;;;;;;13.56;49.95;100422.34;1770097;80;21072;-63
2023/06/01 02:43:18;;;;;;;8.45;3.62;;;;;;;13.58;50.00;100416.92;1770110;80;21056;-62
2023/06/01 02:45:47;;;;;;;8.88;4.33;;;;;;;13.56;50.09;100409.41;1770169;81;21012;-63
2023/06/01 02:48:17;;;;;;;10.03;3.72;;;;;;;13.55;50.18;100411.86;1775902;80;21524;-63
2023/06/01 02:50:47;;;;;;;11.50;4.20;;;;;;;13.55;50.24;100413.77;1783228;80;21067;-62
2023/06/01 02:53:17;;;;;;;13.00;4.12;;;;;;;13.55;50.33;100413.77;1783249;80;21417;-61
2023/06/01 02:55:46;;;;;;;6.75;3.30;;;;;;;13.58;50.35;100415.55;1753193;80;21032;-63
2023/06/01 02:58:30;;;;;;;9.70;4.08;;;;;;;13.63;50.43;100411.61;1747114;80;21087;-62
2023/06/01 03:01:01;;;;;;;9.93;3.90;;;;;;;13.70;50.42;100417.66;1781655;80;21040;-62
2023/06/01 03:03:31;;;;;;;8.70;4.28;;;;;;;13.73;50.46;100417.22;1783245;80;21511;-61
2023/06/01 03:06:02;;;;;;;9.20;4.37;;;;;;;13.75;50.46;100419.23;1753077;80;21028;-62
2023/06/01 03:08:41;;;;;;;10.30;4.20;;;;;;;13.78;50.40;100418.79;1778624;80;21535;-64
2023/06/01 03:11:12;;;;;;;11.90;4.50;;;;;;;13.81;50.16;100418.35;1783084;80;21435;-62
2023/06/01 03:13:41;;;;;;;12.70;4.35;;;;;;;13.81;50.38;100415.59;1783139;80;21448;-63
2023/06/01 03:16:10;;;;;;;10.50;3.70;;;;;;;13.82;50.37;100417.29;1783288;80;20992;-62
2023/06/01 03:18:41;;;;;;;9.55;4.10;;;;;;;13.87;50.47;100418.86;1783179;80;21000;-63
2023/06/01 03:21:10;;;;;;;13.65;4.22;;;;;;;13.91;50.51;100415.44;1783072;80;21004;-61
2023/06/01 03:23:43;;;;;;;13.45;3.95;;;;;;;13.94;50.47;100410.03;1783321;80;21004;-62
2023/06/01 03:26:18;;;;;;;16.73;5.37;;;;;;;13.95;50.42;100415.84;1783193;80;21440;-62
2023/06/01 03:28:42;;;;;;;19.92;4.97;;;;;;;14.01;50.27;100414.13;1782416;80;21061;-61
2023/06/01 03:31:12;;;;;;;9.93;4.30;;;;;;;14.11;50.07;100408.45;1783311;80;21071;-63
2023/06/01 03:33:42;;;;;;;15.55;5.00;;;;;;;14.16;50.15;100411.39;1752986;80;21036;-63
2023/06/01 03:36:11;;;;;;;15.55;4.65;;;;;;;14.19;49.97;100406.81;1783175;80;21052;-63
2023/06/01 03:38:42;;;;;;;19.25;5.47;;;;;;;14.27;49.79;100411.22;1783090;80;21000;-62
2023/06/01 03:41:11;;;;;;;17.30;5.05;;;;;;;14.36;49.69;100404.94;1783022;80;21448;-62
2023/06/01 03:43:40;;;;;;;14.33;4.80;;;;;;;14.46;49.31;100406.70;1783084;80;21036;-63
2023/06/01 03:46:11;;;;;;;11.40;4.00;;;;;;;14.52;49.41;100412.70;1783158;80;21028;-62
2023/06/01 03:48:41;;;;;;;7.50;3.70;;;;;;;14.57;48.60;100404.07;1761519;80;21038;-62
2023/06/01 03:51:10;;;;;;;7.92;2.98;;;;;;;14.69;47.50;100402.81;1739229;81;21497;-62
2023/06/01 03:53:40;;;;;;;9.28;3.30;;;;;;;14.80;46.71;100396.56;1739465;81;21124;-63
2023/06/01 03:56:09;;;;;;;8.05;3.12;;;;;;;14.90;46.17;100393.29;1739374;82;21054;-64
2023/06/01 03:58:40;;;;;;;13.18;3.37;;;;;;;15.02;45.88;100393.42;1720940;82;21085;-63
2023/06/01 04:01:12;;;;;;;9.05;2.80;;;;;;;15.13;45.52;100392.67;1739310;82;21100;-62
2023/06/01 04:03:43;;;;;;;9.33;3.00;;;;;;;15.20;45.23;100386.02;1720949;82;21486;-62
2023/06/01 04:06:13;;;;;;;8.58;3.42;;;;;;;15.31;45.24;100388.55;1739330;82;21081;-63
2023/06/01 04:08:49;;;;;;;12.20;3.27;;;;;;;15.40;45.15;100392.70;1720840;82;21112;-63
2023/06/01 04:11:18;;;;;;;8.28;2.52;;;;;;;15.49;44.96;100380.81;1739310;82;21034;-63
2023/06/01 04:13:48;;;;;;;16.50;3.60;;;;;;;15.62;44.30;100396.45;1739163;81;21099;-62
2023/06/01 04:16:17;;;;;;;14.05;3.80;;;;;;;15.73;44.15;100376.33;1739063;81;21050;-64
2023/06/01 04:18:46;;;;;;;7.67;2.92;;;;;;;15.84;44.26;100385.22;1720988;82;21006;-63
2023/06/01 04:21:20;;;;;;;8.03;2.55;;;;;;;15.96;43.53;100387.50;1739127;82;21082;-63
2023/06/01 04:23:49;;;;;;;7.90;2.70;;;;;;;16.05;43.21;100384.72;1739599;81;21018;-63
2023/06/01 04:26:19;;;;;;;9.88;3.30;;;;;;;16.16;42.85;100381.69;1739204;81;21034;-61
2023/06/01 04:28:48;;;;;;;5.25;2.50;;;;;;;16.27;42.62;100375.92;1739111;81;21345;-63
2023/06/01 04:31:19;;;;;;;11.40;2.90;;;;;;;16.36;42.41;100374.52;1739180;82;21109;-63
2023/06/01 04:33:56;;;;;;;6.65;2.90;;;;;;;16.46;42.43;100372.86;1697852;82;21070;-63
2023/06/01 04:36:28;;;;;;;11.85;3.35;;;;;;;16.56;42.28;100372.27;1739475;82;21117;-63
2023/06/01 04:38:59;;;;;;;9.03;2.90;;;;;;;16.67;42.00;100372.86;1739314;82;21062;-63
2023/06/01 04:41:30;;;;;;;8.33;2.72;;;;;;;16.79;41.78;100374.27;1739341;81;21054;-63
2023/06/01 04:44:00;;;;;;;9.10;2.72;;;;;;;16.89;41.60;100374.51;1739402;81;21073;-64
2023/06/01 04:46:30;;;;;;;6.28;2.83;;;;;;;17.00;41.27;100365.39;1739043;82;21079;-63
2023/06/01 04:49:02;;;;;;;6.00;2.83;;;;;;;17.11;40.94;100372.86;1754637;81;21115;-62
2023/06/01 04:51:33;;;;;;;8.75;2.90;;;;;;;17.24;40.90;100372.30;1769880;81;21021;-62
2023/06/01 04:54:02;;;;;;;8.38;2.83;;;;;;;17.38;40.78;100375.13;1770194;81;21452;-63
2023/06/01 04:56:31;;;;;;;14.55;3.58;;;;;;;17.54;40.48;100374.37;1769869;81;21045;-64
2023/06/01 04:59:05;;;;;;;9.85;3.30;;;;;;;17.74;40.23;100374.02;1769941;81;21033;-64
2023/06/01 05:01:40;;;;;;;6.90;3.67;;;;;;;18.00;39.92;100371.21;1769881;80;21028;-64
2023/06/01 05:04:14;;;;;;;8.45;3.02;;;;;;;18.37;39.43;100368.89;1769913;80;21503;-61
2023/06/01 05:06:48;;;;;;;9.38;3.40;;;;;;;18.74;39.00;100365.13;1732049;83;21062;-61
2023/06/01 05:09:19;;;;;;;7.50;3.00;;;;;;;19.11;38.65;100365.47;1708463;83;21094;-63
2023/06/01 05:11:49;;;;;;;16.37;3.50;;;;;;;19.45;38.03;100359.84;1731703;83;21462;-62
2023/06/01 05:14:19;;;;;;;15.25;3.33;;;;;;;19.80;37.00;100356.73;1708200;83;21070;-63
2023/06/01 05:16:51;;;;;;;7.37;3.20;;;;;;;20.16;36.22;100356.62;1731619;83;21074;-63
2023/06/01 05:19:21;;;;;;;12.68;3.42;;;;;;;20.50;35.13;100353.09;1731652;83;21034;-63
2023/06/01 05:21:51;;;;;;;10.88;3.37;;;;;;;20.85;35.03;100352.58;1707457;83;21548;-63
2023/06/01 05:24:21;;;;;;;14.20;3.80;;;;;;;21.18;34.89;100342.50;1742832;81;21103;-63
2023/06/01 05:26:51;;;;;;;10.75;2.80;;;;;;;21.55;34.19;100346.39;1770163;81;21024;-63
2023/06/01 05:29:19;;;;;;;11.78;3.10;;;;;;;21.94;33.35;100339.84;1770109;81;21088;-62
2023/06/01 05:31:50;;;;;;;6.75;2.30;;;;;;;22.24;31.82;100344.73;1769780;80;21081;-63
2023/06/01 05:34:18;;;;;;;8.00;2.40;;;;;;;22.44;30.88;100342.80;1769981;81;21056;-63
2023/06/01 05:36:48;;;;;;;6.15;2.08;;;;;;;22.71;30.30;100340.30;1769965;80;21008;-63
2023/06/01 05:39:17;;;;;;;5.35;1.80;;;;;;;23.00;28.92;100337.27;1770012;80;21009;-64
2023/06/01 05:41:46;;;;;;;3.50;2.05;;;;;;;23.18;27.86;100335.00;1770018;80;21062;-62
2023/06/01 05:44:15;;;;;;;5.00;1.80;;;;;;;23.23;27.50;100335.83;1769824;80;20985;-62
2023/06/01 05:46:44;;;;;;;6.62;1.80;;;;;;;23.28;27.47;100333.58;1769785;80;21057;-66
2023/06/01 05:49:12;;;;;;;6.65;1.85;;;;;;;23.37;27.31;100336.07;1775877;80;21172;-63
2023/06/01 05:51:42;;;;;;;3.37;1.95;;;;;;;23.53;27.16;100337.73;1782949;80;21047;-63
2023/06/01 05:54:13;;;;;;;8.35;2.05;;;;;;;23.60;27.13;100332.70;1753847;80;21076;-64
2023/06/01 05:56:44;;;;;;;14.45;8.20;;;;;;;23.68;27.18;100333.50;1783035;80;21040;-62
2023/06/01 05:59:14;;;;;;;10.53;2.17;;;;;;;23.88;27.22;100335.37;1783058;80;21044;-64
2023/06/01 06:01:44;;;;;;;8.53;2.15;;;;;;;24.14;27.00;100335.26;1783116;80;21036;-64
2023/06/01 06:04:13;;;;;;;11.48;2.20;;;;;;;24.48;26.84;100333.94;1783196;80;21011;-62
2023/06/01 06:06:44;;;;;;;8.48;2.30;;;;;;;24.74;26.18;100338.23;1783162;80;21012;-61
2023/06/01 06:09:14;;;;;;;7.92;1.75;;;;;;;24.90;25.89;100341.17;1783027;80;21059;-62
2023/06/01 06:11:43;;;;;;;9.63;2.40;;;;;;;25.00;25.76;100345.05;1783125;80;21461;-63
2023/06/01 06:14:13;;;;;;;8.88;2.40;;;;;;;25.14;25.87;100339.02;1782984;80;21083;-62
2023/06/01 06:16:42;;;;;;;4.00;2.12;;;;;;;25.32;25.45;100334.05;1783234;80;21035;-64
2023/06/01 06:19:12;;;;;;;7.37;2.92;;;;;;;25.32;25.86;100336.02;1783050;80;21044;-64
2023/06/01 06:21:42;;;;;;;3.45;1.82;;;;;;;25.39;25.83;100335.13;1783463;80;21047;-64
2023/06/01 06:24:12;;;;;;;14.20;3.20;;;;;;;25.48;25.72;100334.75;1783235;80;21088;-63
2023/06/01 06:26:43;;;;;;;10.68;2.60;;;;;;;25.59;25.63;100338.53;1783183;80;21079;-63
2023/06/01 06:29:12;;;;;;;9.15;2.52;;;;;;;25.81;25.14;100338.02;1783105;80;21456;-62
2023/06/01 06:31:42;;;;;;;5.72;2.52;;;;;;;25.96;25.17;100331.36;1783040;80;21024;-62
2023/06/01 06:34:13;;;;;;;3.87;2.00;;;;;;;26.12;25.11;100330.03;1783615;80;21037;-63
2023/06/01 06:36:42;;;;;;;8.15;2.33;;;;;;;26.30;24.88;100328.93;1783048;80;21059;-62
2023/06/01 06:39:12;;;;;;;7.10;2.10;;;;;;;26.47;25.00;100320.83;1783189;80;21036;-63
2023/06/01 06:41:42;;;;;;;5.05;2.15;;;;;;;26.96;24.15;100322.27;1753484;80;21020;-63
2023/06/01 06:44:11;;;;;;;8.03;2.20;;;;;;;26.96;24.15;100322.27;1783053;80;21460;-63
2023/06/01 06:46:42;;;;;;;7.80;2.80;;;;;;;27.24;24.49;100324.59;1782994;80;21063;-63
2023/06/01 06:49:11;;;;;;;6.62;2.40;;;;;;;27.24;24.49;100324.59;1782961;79;21084;-63
2023/06/01 06:51:40;;;;;;;9.55;2.42;;;;;;;27.35;23.98;100317.08;1783038;80;21059;-63
2023/06/01 06:54:14;;;;;;;12.50;3.12;;;;;;;27.51;24.02;100321.00;1783243;80;21017;-64
2023/06/01 06:56:44;;;;;;;5.92;2.02;;;;;;;27.67;23.49;100319.56;1783221;80;21001;-61
2023/06/01 06:59:14;;;;;;;8.25;2.50;;;;;;;27.82;23.26;100317.00;1782928;80;21000;-65
2023/06/01 07:01:43;;;;;;;7.53;2.50;;;;;;;27.90;23.15;100322.72;1753372;80;21075;-62
2023/06/01 07:04:13;;;;;;;8.23;2.52;;;;;;;27.88;23.30;100314.33;1783107;80;21489;-62
2023/06/01 07:06:42;;;;;;;4.00;2.15;;;;;;;27.87;23.52;100316.31;1783160;80;21048;-62
2023/06/01 07:09:11;;;;;;;7.40;2.70;;;;;;;27.88;23.25;100312.34;1782972;80;21044;-63
2023/06/01 07:11:42;;;;;;;22.98;4.37;;;;;;;27.95;23.71;100311.34;1783126;80;21012;-64
2023/06/01 07:14:12;;;;;;;6.53;2.55;;;;;;;28.10;23.62;100316.66;1753679;80;21004;-65
2023/06/01 07:16:42;;;;;;;10.48;6.90;;;;;;;28.26;23.17;100310.12;1782658;80;21028;-64
2023/06/01 07:19:11;;;;;;;9.25;3.00;;;;;;;28.28;23.15;100310.64;1782818;80;21071;-65
2023/06/01 07:21:41;;;;;;;9.90;2.72;;;;;;;28.40;22.39;100306.69;1782879;80;21566;-63
2023/06/01 07:24:11;;;;;;;6.85;2.12;;;;;;;28.46;22.34;100303.73;1783035;80;21056;-63
2023/06/01 07:26:42;;;;;;;5.92;2.10;;;;;;;28.54;22.52;100300.16;1783011;80;21020;-63
2023/06/01 07:29:11;;;;;;;6.30;2.08;;;;;;;28.51;22.43;100302.20;1782683;80;21091;-63
2023/06/01 07:31:40;;;;;;;8.03;2.47;;;;;;;28.57;22.33;100304.58;1782862;80;21060;-62
2023/06/01 07:34:10;;;;;;;6.47;2.22;;;;;;;28.70;22.27;100297.23;1782745;80;21052;-62
2023/06/01 07:36:40;;;;;;;5.72;1.90;;;;;;;28.79;22.06;100291.66;1782924;80;21091;-62
2023/06/01 07:39:09;;;;;;;6.47;2.05;;;;;;;28.77;22.26;100290.56;1783029;80;21083;-63
2023/06/01 07:41:39;;;;;;;7.22;2.10;;;;;;;28.83;22.34;100284.21;1782982;80;21040;-62
2023/06/01 07:44:09;;;;;;;5.97;2.08;;;;;;;28.97;22.00;100294.28;1783113;80;21048;-61
2023/06/01 07:46:38;;;;;;;9.65;2.17;;;;;;;29.13;21.64;100295.28;1782900;80;21091;-63
2023/06/01 07:49:07;;;;;;;7.72;2.52;;;;;;;29.13;21.49;100286.81;1780011;78;21161;-65
2023/06/01 07:51:38;;;;;;;6.12;2.35;;;;;;;29.15;21.73;100292.97;1783581;80;21058;-63
2023/06/01 07:54:07;;;;;;;3.37;1.98;;;;;;;29.21;21.39;100288.27;1787197;80;20998;-70
2023/06/01 07:56:38;;;;;;;4.87;2.00;;;;;;;29.25;21.01;100278.57;1786337;80;21049;-64
2023/06/01 07:59:07;;;;;;;6.75;2.22;;;;;;;29.35;21.11;100283.38;1781175;80;21527;-63
2023/06/01 08:01:36;;;;;;;7.10;2.65;;;;;;;29.41;20.72;100281.23;1786078;80;21002;-63
2023/06/01 08:04:06;;;;;;;4.30;2.10;;;;;;;29.40;21.30;100278.74;1759981;80;21549;-66
2023/06/01 08:06:41;;;;;;;6.17;2.50;;;;;;;29.45;21.37;100279.46;1783670;80;21145;-68
2023/06/01 08:09:12;;;;;;;5.95;2.47;;;;;;;29.53;21.01;100270.77;1780419;80;21450;-67
2023/06/01 08:11:42;;;;;;;8.53;1.80;;;;;;;29.58;20.64;100264.97;1780267;80;20999;-67
2023/06/01 08:14:11;;;;;;;8.98;2.30;;;;;;;29.61;20.21;100263.73;1780214;80;21023;-67
2023/06/01 08:16:40;;;;;;;7.55;2.17;;;;;;;29.51;20.43;100265.45;1780721;80;21388;-67
2023/06/01 08:19:09;;;;;;;5.78;2.10;;;;;;;29.45;20.86;100258.86;1754504;80;21094;-70
2023/06/01 08:21:41;;;;;;;7.75;2.60;;;;;;;29.50;20.88;100255.89;1780309;80;21070;-67
2023/06/01 08:24:11;;;;;;;4.12;2.10;;;;;;;29.52;20.89;100256.39;1782602;80;21011;-67
2023/06/01 08:26:41;;;;;;;3.98;1.92;;;;;;;29.58;20.56;100253.09;1783615;80;21018;-68
2023/06/01 08:29:11;;;;;;;5.33;2.35;;;;;;;29.69;20.47;100248.55;1783729;80;21081;-69
2023/06/01 08:31:40;;;;;;;7.50;2.15;;;;;;;29.67;20.54;100260.17;1783650;80;21477;-68
2023/06/01 08:34:08;;;;;;;7.60;2.22;;;;;;;29.67;20.73;100251.70;1783757;80;21019;-67
2023/06/01 08:36:37;;;;;;;5.58;2.20;;;;;;;29.78;20.40;100242.33;1783649;80;21049;-67
2023/06/01 08:39:25;;;;;;;12.47;2.80;;;;;;;29.89;20.30;100236.61;1783900;80;21070;-67
2023/06/01 08:42:23;;;;;;;8.75;2.55;;;;;;;30.01;20.19;100243.05;1783920;80;21026;-68
2023/06/01 08:44:57;;;;;;;4.33;2.12;;;;;;;30.02;20.29;100234.27;1783520;80;21010;-67
2023/06/01 08:47:26;;;;;;;8.53;3.20;;;;;;;29.80;19.40;100232.36;1784004;80;21022;-66
2023/06/01 08:49:55;;;;;;;6.78;2.95;;;;;;;29.40;20.17;100229.34;1786374;80;21030;-71
2023/06/01 08:52:31;;;;;;;4.85;2.10;;;;;;;29.35;20.21;100217.05;1791095;80;20990;-68
2023/06/01 08:55:01;;;;;;;6.22;1.92;;;;;;;29.49;20.38;100220.34;1790745;80;21003;-67
2023/06/01 08:57:30;;;;;;;8.25;2.20;;;;;;;29.58;20.23;100218.38;1759275;81;21471;-67
2023/06/01 08:59:59;;;;;;;11.20;3.45;;;;;;;29.66;20.05;100212.74;1776498;81;21042;-65
2023/06/01 09:02:28;;;;;;;4.12;2.00;;;;;;;29.50;20.30;100223.42;1776602;80;21779;-67
2023/06/01 09:04:57;;;;;;;4.65;1.87;;;;;;;29.42;20.34;100217.14;1776812;81;21050;-69
2023/06/01 09:07:26;;;;;;;10.48;2.50;;;;;;;29.29;20.57;100214.70;1776794;81;20983;-67
2023/06/01 09:09:55;;;;;;;8.85;2.42;;;;;;;29.18;20.47;100213.30;1776939;81;21003;-68
2023/06/01 09:12:29;;;;;;;6.55;2.15;;;;;;;29.03;20.63;100210.34;1776917;81;21444;-66
2023/06/01 09:15:16;;;;;;;7.03;2.30;;;;;;;28.93;20.66;100210.05;1776894;81;21495;-66
2023/06/01 09:17:46;;;;;;;;;;;;;;;28.97;20.81;100214.46;1779355;80;21039;-66
2023/06/01 09:20:19;;;;;;;5.08;2.20;;;;;;;28.98;20.68;100211.89;1776731;81;20231;-67
2023/06/01 09:22:49;;;;;;;3.67;2.42;;;;;;;28.93;20.85;100207.80;1774648;80;21047;-67
2023/06/01 09:25:28;;;;;;;7.12;2.00;;;;;;;28.84;20.43;100195.66;1776848;80;21050;-67
2023/06/01 09:27:59;;;;;;;6.33;2.20;;;;;;;28.61;20.67;100195.67;1749474;81;21058;-69
2023/06/01 09:30:43;;;;;;;3.02;2.25;;;;;;;28.42;20.99;100200.67;1747580;81;21031;-67
2023/06/01 09:33:16;;;;;;;7.20;2.27;;;;;;;28.31;21.46;100191.64;1776631;81;21027;-65
2023/06/01 09:35:47;;;;;;;9.90;2.33;;;;;;;28.20;21.62;100195.02;1776800;80;21439;-67
2023/06/01 09:38:24;;;;;;;6.67;2.58;;;;;;;28.13;21.70;100199.69;1730767;81;21113;-69
2023/06/01 09:40:59;;;;;;;4.85;2.45;;;;;;;28.10;21.23;100187.07;1777062;80;21059;-68
2023/06/01 09:43:28;;;;;;;5.80;3.08;;;;;;;27.93;21.31;100191.70;1777253;80;21082;-67
2023/06/01 09:46:09;;;;;;;6.12;2.20;;;;;;;27.81;21.23;100187.20;1776916;81;21089;-69
2023/06/01 09:48:40;;;;;;;3.90;2.08;;;;;;;27.59;21.69;100174.72;1777059;80;21525;-66
2023/06/01 09:51:22;;;;;;;5.12;2.10;;;;;;;27.38;22.22;100179.98;1780874;80;21129;-68
2023/06/01 09:53:52;;;;;;;5.75;2.42;;;;;;;27.33;22.34;100177.28;1746343;80;21474;-69
2023/06/01 09:56:21;;;;;;;6.45;3.47;;;;;;;27.27;22.67;100174.86;1689519;85;21054;-67
2023/06/01 09:58:58;;;;;;;9.38;2.58;;;;;;;27.34;22.64;100172.48;1677837;85;21046;-69
2023/06/01 10:01:31;;;;;;;5.62;2.00;;;;;;;27.40;22.76;100180.50;1675585;85;21098;-68
2023/06/01 10:04:01;;;;;;;3.67;2.00;;;;;;;27.46;22.70;100177.83;1675817;85;21179;-68
2023/06/01 10:06:33;;;;;;;4.05;2.17;;;;;;;27.41;22.57;100172.31;1675887;85;21033;-67
2023/06/01 10:09:02;;;;;;;4.95;2.15;;;;;;;27.28;22.57;100171.73;1653531;85;21085;-67
2023/06/01 10:11:33;;;;;;;5.95;2.40;;;;;;;27.22;22.74;100170.75;1675862;85;21089;-68
2023/06/01 10:14:03;;;;;;;6.22;2.20;;;;;;;27.24;22.84;100173.51;1676713;82;21462;-68
2023/06/01 10:16:33;;;;;;;10.78;2.17;;;;;;;27.26;22.92;100171.78;1751419;82;21454;-64
2023/06/01 10:19:02;;;;;;;4.75;2.10;;;;;;;27.28;22.89;100165.27;1751599;82;21646;-67
2023/06/01 10:21:32;;;;;;;6.08;2.05;;;;;;;27.29;22.85;100155.68;1751547;82;21129;-66
2023/06/01 10:24:01;;;;;;;8.10;2.60;;;;;;;27.29;22.85;100155.68;1751792;82;21031;-68
2023/06/01 10:26:33;;;;;;;10.23;2.17;;;;;;;27.23;22.58;100158.34;1751643;82;21098;-66
2023/06/01 10:29:02;;;;;;;5.28;2.10;;;;;;;27.10;22.79;100153.83;1751838;82;21031;-65
2023/06/01 10:31:40;;;;;;;5.12;2.62;;;;;;;26.97;23.25;100153.23;1736088;82;21580;-66
2023/06/01 10:34:10;;;;;;;8.18;2.58;;;;;;;26.96;23.36;100148.75;1751546;82;21534;-66
2023/06/01 10:37:00;;;;;;;6.62;2.30;;;;;;;27.06;23.28;100150.55;1725220;82;21007;-68
2023/06/01 10:39:31;;;;;;;5.12;2.02;;;;;;;27.18;23.27;100145.80;1762538;80;21074;-67
2023/06/01 10:42:18;;;;;;;6.15;2.25;;;;;;;27.26;23.28;100139.43;1788595;80;21049;-68
2023/06/01 10:44:50;;;;;;;;;;;;;;;27.29;23.16;100138.80;1791318;80;21053;-67
2023/06/01 10:47:24;;;;;;;7.87;2.37;;;;;;;27.28;22.66;100141.36;1788393;80;20207;-67
2023/06/01 10:50:04;;;;;;;11.28;3.27;;;;;;;27.24;22.62;100132.71;1693057;84;21536;-67
2023/06/01 10:52:35;;;;;;;6.40;2.55;;;;;;;27.12;22.72;100133.83;1668431;86;21114;-68
2023/06/01 10:55:15;;;;;;;5.45;2.30;;;;;;;27.02;22.91;100127.84;1646307;86;21090;-67
2023/06/01 10:57:47;;;;;;;3.40;2.20;;;;;;;26.95;22.94;100120.38;1655183;86;21117;-69
2023/06/01 11:00:24;;;;;;;14.23;3.98;;;;;;;26.83;23.26;100118.66;1638025;87;21081;-67
2023/06/01 11:03:04;;;;;;;10.13;2.95;;;;;;;26.78;23.59;100113.98;1637793;87;21073;-69
2023/06/01 11:05:50;;;;;;;5.92;2.45;;;;;;;26.88;23.65;100109.28;1637658;87;21105;-68
2023/06/01 11:08:31;;;;;;;8.20;2.95;;;;;;;26.96;23.65;100104.34;1694812;83;21381;-67
2023/06/01 11:11:03;;;;;;;4.80;2.60;;;;;;;27.02;23.42;100111.55;1715157;83;21505;-68
2023/06/01 11:13:36;;;;;;;7.33;2.37;;;;;;;27.07;23.02;100110.86;1729914;82;21061;-67
2023/06/01 11:16:10;;;;;;;11.38;3.37;;;;;;;27.04;22.58;100101.64;1730073;83;21074;-67
2023/06/01 11:18:49;;;;;;;5.63;2.33;;;;;;;26.98;22.68;100086.03;1730191;83;21089;-66
2023/06/01 11:21:24;;;;;;;5.30;2.27;;;;;;;26.98;23.09;100100.67;1729861;83;21105;-67
2023/06/01 11:23:56;;;;;;;6.03;2.40;;;;;;;26.99;23.05;100094.73;1730051;83;21093;-66
2023/06/01 11:26:32;;;;;;;7.08;2.37;;;;;;;27.05;22.87;100087.84;1730038;83;21105;-66
2023/06/01 11:29:16;;;;;;;6.90;2.47;;;;;;;27.03;22.80;100090.14;1729868;83;21125;-67
2023/06/01 11:31:55;;;;;;;5.35;2.40;;;;;;;26.99;23.04;100085.46;1729896;83;21053;-66
2023/06/01 11:34:41;;;;;;;7.10;2.50;;;;;;;26.95;22.97;100083.81;1729821;83;21478;-65
2023/06/01 11:37:17;;;;;;;8.43;2.40;;;;;;;26.93;23.25;100079.66;1729784;83;21109;-69
2023/06/01 11:39:47;;;;;;;12.07;3.47;;;;;;;27.00;23.36;100075.30;1730021;83;21046;-68
2023/06/01 11:42:18;;;;;;;4.45;2.30;;;;;;;27.04;23.03;100072.12;1729724;83;21093;-67
2023/06/01 11:44:58;;;;;;;6.60;2.40;;;;;;;27.05;22.84;100073.78;1729868;83;21474;-67